sensor_id;sensor_type;location;lat;lon;timestamp;P1;durP1;ratioP1;P2;durP2;ratioP2
22476;SDS011;65006;51.698;-0.292;2024-02-16T00:00:27;5.78;;;2.63;;
22476;SDS011;65006;51.698;-0.292;2024-02-16T00:02:53;7.65;;;2.92;;
22476;SDS011;65006;51.698;-0.292;2024-02-16T00:05:19;10.57;;;2.78;;
22476;SDS011;65006;51.698;-0.292;2024-02-16T00:07:45;9.57;;;3.58;;
22476;SDS011;65006;51.698;-0.292;2024-02-16T00:12:38;12.15;;;3.20;;
22476;SDS011;65006;51.698;-0.292;2024-02-16T00:15:05;9.15;;;3.50;;
22476;SDS011;65006;51.698;-0.292;2024-02-16T00:17:31;6.75;;;3.10;;
22476;SDS011;65006;51.698;-0.292;2024-02-16T00:19:58;8.00;;;3.40;;
22476;SDS011;65006;51.698;-0.292;2024-02-16T00:22:24;8.27;;;4.00;;
22476;SDS011;65006;51.698;-0.292;2024-02-16T00:24:52;5.95;;;2.90;;
22476;SDS011;65006;51.698;-0.292;2024-02-16T00:27:18;8.73;;;3.20;;
22476;SDS011;65006;51.698;-0.292;2024-02-16T00:29:44;8.52;;;3.50;;
22476;SDS011;65006;51.698;-0.292;2024-02-16T00:32:11;8.35;;;3.00;;
22476;SDS011;65006;51.698;-0.292;2024-02-16T00:34:37;6.00;;;2.88;;
22476;SDS011;65006;51.698;-0.292;2024-02-16T00:37:04;9.13;;;3.28;;
22476;SDS011;65006;51.698;-0.292;2024-02-16T00:39:35;10.68;;;3.40;;
22476;SDS011;65006;51.698;-0.292;2024-02-16T00:44:27;9.60;;;3.10;;
22476;SDS011;65006;51.698;-0.292;2024-02-16T00:46:53;7.63;;;3.35;;
22476;SDS011;65006;51.698;-0.292;2024-02-16T00:49:19;11.27;;;4.03;;
22476;SDS011;65006;51.698;-0.292;2024-02-16T00:51:45;8.10;;;3.05;;
22476;SDS011;65006;51.698;-0.292;2024-02-16T00:54:11;13.43;;;3.58;;
22476;SDS011;65006;51.698;-0.292;2024-02-16T00:56:37;6.57;;;3.13;;
22476;SDS011;65006;51.698;-0.292;2024-02-16T00:59:03;11.43;;;3.50;;
22476;SDS011;65006;51.698;-0.292;2024-02-16T01:01:30;8.40;;;3.45;;
22476;SDS011;65006;51.698;-0.292;2024-02-16T01:03:57;7.53;;;3.88;;
22476;SDS011;65006;51.698;-0.292;2024-02-16T01:06:23;10.00;;;3.13;;
22476;SDS011;65006;51.698;-0.292;2024-02-16T01:08:49;5.05;;;3.47;;
22476;SDS011;65006;51.698;-0.292;2024-02-16T01:11:15;10.40;;;4.45;;
22476;SDS011;65006;51.698;-0.292;2024-02-16T01:13:41;12.10;;;4.30;;
22476;SDS011;65006;51.698;-0.292;2024-02-16T01:16:08;9.65;;;3.60;;
22476;SDS011;65006;51.698;-0.292;2024-02-16T01:18:34;10.73;;;4.20;;
22476;SDS011;65006;51.698;-0.292;2024-02-16T01:21:02;11.95;;;4.40;;
22476;SDS011;65006;51.698;-0.292;2024-02-16T01:23:29;13.90;;;4.45;;
22476;SDS011;65006;51.698;-0.292;2024-02-16T01:25:55;10.75;;;4.65;;
22476;SDS011;65006;51.698;-0.292;2024-02-16T01:28:21;14.00;;;5.18;;
22476;SDS011;65006;51.698;-0.292;2024-02-16T01:30:48;9.48;;;5.18;;
22476;SDS011;65006;51.698;-0.292;2024-02-16T01:33:14;9.55;;;4.90;;
22476;SDS011;65006;51.698;-0.292;2024-02-16T01:35:40;17.45;;;5.38;;
22476;SDS011;65006;51.698;-0.292;2024-02-16T01:38:06;18.10;;;5.18;;
22476;SDS011;65006;51.698;-0.292;2024-02-16T01:40:32;16.58;;;5.13;;
22476;SDS011;65006;51.698;-0.292;2024-02-16T01:42:58;7.90;;;4.68;;
22476;SDS011;65006;51.698;-0.292;2024-02-16T01:45:24;13.05;;;5.90;;
22476;SDS011;65006;51.698;-0.292;2024-02-16T01:47:50;14.60;;;6.03;;
22476;SDS011;65006;51.698;-0.292;2024-02-16T01:50:17;17.58;;;6.68;;
22476;SDS011;65006;51.698;-0.292;2024-02-16T01:55:09;14.05;;;5.93;;
22476;SDS011;65006;51.698;-0.292;2024-02-16T01:57:36;13.38;;;6.22;;
22476;SDS011;65006;51.698;-0.292;2024-02-16T02:00:02;19.15;;;6.55;;
22476;SDS011;65006;51.698;-0.292;2024-02-16T02:04:54;10.18;;;5.72;;
22476;SDS011;65006;51.698;-0.292;2024-02-16T02:07:24;16.30;;;6.20;;
22476;SDS011;65006;51.698;-0.292;2024-02-16T02:09:51;17.90;;;6.38;;
22476;SDS011;65006;51.698;-0.292;2024-02-16T02:12:17;14.88;;;6.40;;
22476;SDS011;65006;51.698;-0.292;2024-02-16T02:14:43;11.82;;;5.13;;
22476;SDS011;65006;51.698;-0.292;2024-02-16T02:17:11;13.05;;;5.40;;
22476;SDS011;65006;51.698;-0.292;2024-02-16T02:19:37;7.82;;;4.57;;
22476;SDS011;65006;51.698;-0.292;2024-02-16T02:22:03;10.30;;;4.72;;
22476;SDS011;65006;51.698;-0.292;2024-02-16T02:24:29;8.30;;;4.25;;
22476;SDS011;65006;51.698;-0.292;2024-02-16T02:26:55;8.10;;;3.42;;
22476;SDS011;65006;51.698;-0.292;2024-02-16T02:29:22;9.27;;;3.50;;
22476;SDS011;65006;51.698;-0.292;2024-02-16T02:31:48;5.28;;;2.90;;
22476;SDS011;65006;51.698;-0.292;2024-02-16T02:34:14;3.90;;;2.50;;
22476;SDS011;65006;51.698;-0.292;2024-02-16T02:36:40;3.88;;;2.42;;
22476;SDS011;65006;51.698;-0.292;2024-02-16T02:39:06;5.90;;;2.58;;
22476;SDS011;65006;51.698;-0.292;2024-02-16T02:41:32;2.83;;;1.80;;
22476;SDS011;65006;51.698;-0.292;2024-02-16T02:43:59;1.98;;;1.70;;
22476;SDS011;65006;51.698;-0.292;2024-02-16T02:46:25;2.55;;;1.48;;
22476;SDS011;65006;51.698;-0.292;2024-02-16T02:48:52;2.78;;;1.30;;
22476;SDS011;65006;51.698;-0.292;2024-02-16T02:51:18;2.10;;;1.35;;
22476;SDS011;65006;51.698;-0.292;2024-02-16T02:53:44;2.92;;;1.10;;
22476;SDS011;65006;51.698;-0.292;2024-02-16T02:56:10;2.78;;;1.20;;
22476;SDS011;65006;51.698;-0.292;2024-02-16T02:58:38;3.90;;;1.55;;
22476;SDS011;65006;51.698;-0.292;2024-02-16T03:01:04;3.28;;;1.38;;
22476;SDS011;65006;51.698;-0.292;2024-02-16T03:03:32;3.97;;;1.60;;
22476;SDS011;65006;51.698;-0.292;2024-02-16T03:05:59;3.00;;;1.48;;
22476;SDS011;65006;51.698;-0.292;2024-02-16T03:08:25;1.90;;;1.25;;
22476;SDS011;65006;51.698;-0.292;2024-02-16T03:10:51;2.15;;;1.60;;
22476;SDS011;65006;51.698;-0.292;2024-02-16T03:13:17;3.13;;;1.45;;
22476;SDS011;65006;51.698;-0.292;2024-02-16T03:18:09;3.28;;;1.35;;
22476;SDS011;65006;51.698;-0.292;2024-02-16T03:20:35;2.58;;;1.30;;
22476;SDS011;65006;51.698;-0.292;2024-02-16T03:23:02;1.73;;;1.30;;
22476;SDS011;65006;51.698;-0.292;2024-02-16T03:25:28;2.35;;;1.27;;
22476;SDS011;65006;51.698;-0.292;2024-02-16T03:27:54;2.58;;;1.02;;
22476;SDS011;65006;51.698;-0.292;2024-02-16T03:30:21;1.48;;;1.20;;
22476;SDS011;65006;51.698;-0.292;2024-02-16T03:32:50;1.73;;;1.25;;
22476;SDS011;65006;51.698;-0.292;2024-02-16T03:35:17;2.40;;;1.38;;
22476;SDS011;65006;51.698;-0.292;2024-02-16T03:37:43;2.72;;;1.17;;
22476;SDS011;65006;51.698;-0.292;2024-02-16T03:40:09;2.97;;;1.58;;
22476;SDS011;65006;51.698;-0.292;2024-02-16T03:42:38;3.60;;;1.50;;
22476;SDS011;65006;51.698;-0.292;2024-02-16T03:45:04;2.22;;;1.50;;
22476;SDS011;65006;51.698;-0.292;2024-02-16T03:47:31;3.40;;;1.60;;
22476;SDS011;65006;51.698;-0.292;2024-02-16T03:49:57;2.78;;;1.17;;
22476;SDS011;65006;51.698;-0.292;2024-02-16T03:52:23;1.92;;;1.35;;
22476;SDS011;65006;51.698;-0.292;2024-02-16T03:54:49;2.00;;;1.10;;
22476;SDS011;65006;51.698;-0.292;2024-02-16T03:57:16;4.70;;;1.88;;
22476;SDS011;65006;51.698;-0.292;2024-02-16T03:59:43;2.00;;;1.38;;
22476;SDS011;65006;51.698;-0.292;2024-02-16T04:02:09;3.80;;;1.25;;
22476;SDS011;65006;51.698;-0.292;2024-02-16T04:04:35;5.70;;;1.50;;
22476;SDS011;65006;51.698;-0.292;2024-02-16T04:07:01;3.70;;;1.50;;
22476;SDS011;65006;51.698;-0.292;2024-02-16T04:09:27;3.17;;;1.80;;
22476;SDS011;65006;51.698;-0.292;2024-02-16T04:11:53;3.42;;;1.83;;
22476;SDS011;65006;51.698;-0.292;2024-02-16T04:14:19;2.10;;;1.70;;
22476;SDS011;65006;51.698;-0.292;2024-02-16T04:16:45;3.15;;;1.67;;
22476;SDS011;65006;51.698;-0.292;2024-02-16T04:19:11;2.78;;;1.60;;
22476;SDS011;65006;51.698;-0.292;2024-02-16T04:21:37;3.88;;;1.30;;
22476;SDS011;65006;51.698;-0.292;2024-02-16T04:24:03;3.50;;;1.83;;
22476;SDS011;65006;51.698;-0.292;2024-02-16T04:26:29;2.28;;;1.50;;
22476;SDS011;65006;51.698;-0.292;2024-02-16T04:28:55;9.00;;;1.77;;
22476;SDS011;65006;51.698;-0.292;2024-02-16T04:31:21;4.75;;;1.55;;
22476;SDS011;65006;51.698;-0.292;2024-02-16T04:33:47;3.88;;;1.55;;
22476;SDS011;65006;51.698;-0.292;2024-02-16T04:36:13;3.40;;;1.45;;
22476;SDS011;65006;51.698;-0.292;2024-02-16T04:38:40;3.33;;;1.73;;
22476;SDS011;65006;51.698;-0.292;2024-02-16T04:41:07;1.70;;;1.27;;
22476;SDS011;65006;51.698;-0.292;2024-02-16T04:43:33;4.03;;;1.42;;
22476;SDS011;65006;51.698;-0.292;2024-02-16T04:45:59;4.32;;;1.50;;
22476;SDS011;65006;51.698;-0.292;2024-02-16T04:48:25;2.78;;;1.80;;
22476;SDS011;65006;51.698;-0.292;2024-02-16T04:50:51;6.95;;;1.85;;
22476;SDS011;65006;51.698;-0.292;2024-02-16T04:53:17;8.82;;;2.08;;
22476;SDS011;65006;51.698;-0.292;2024-02-16T04:55:43;3.45;;;2.08;;
22476;SDS011;65006;51.698;-0.292;2024-02-16T04:58:09;3.80;;;2.25;;
22476;SDS011;65006;51.698;-0.292;2024-02-16T05:00:36;3.10;;;1.63;;
22476;SDS011;65006;51.698;-0.292;2024-02-16T05:03:02;2.92;;;1.80;;
22476;SDS011;65006;51.698;-0.292;2024-02-16T05:05:28;6.22;;;1.98;;
22476;SDS011;65006;51.698;-0.292;2024-02-16T05:07:55;3.75;;;1.40;;
22476;SDS011;65006;51.698;-0.292;2024-02-16T05:10:22;3.55;;;2.20;;
22476;SDS011;65006;51.698;-0.292;2024-02-16T05:12:48;3.03;;;1.83;;
22476;SDS011;65006;51.698;-0.292;2024-02-16T05:15:14;5.13;;;1.90;;
22476;SDS011;65006;51.698;-0.292;2024-02-16T05:17:42;4.60;;;1.88;;
22476;SDS011;65006;51.698;-0.292;2024-02-16T05:20:11;2.58;;;1.17;;
22476;SDS011;65006;51.698;-0.292;2024-02-16T05:22:43;4.68;;;1.80;;
22476;SDS011;65006;51.698;-0.292;2024-02-16T05:25:10;2.00;;;1.20;;
22476;SDS011;65006;51.698;-0.292;2024-02-16T05:27:36;2.13;;;1.40;;
22476;SDS011;65006;51.698;-0.292;2024-02-16T05:30:03;1.80;;;1.05;;
22476;SDS011;65006;51.698;-0.292;2024-02-16T05:32:32;1.98;;;1.30;;
22476;SDS011;65006;51.698;-0.292;2024-02-16T05:34:58;1.30;;;0.90;;
22476;SDS011;65006;51.698;-0.292;2024-02-16T05:37:25;1.40;;;0.98;;
22476;SDS011;65006;51.698;-0.292;2024-02-16T05:39:51;1.10;;;0.93;;
22476;SDS011;65006;51.698;-0.292;2024-02-16T05:42:32;3.10;;;1.20;;
22476;SDS011;65006;51.698;-0.292;2024-02-16T05:44:58;2.42;;;0.68;;
22476;SDS011;65006;51.698;-0.292;2024-02-16T05:47:24;1.23;;;0.80;;
22476;SDS011;65006;51.698;-0.292;2024-02-16T05:49:51;3.15;;;0.82;;
22476;SDS011;65006;51.698;-0.292;2024-02-16T05:52:17;5.93;;;1.08;;
22476;SDS011;65006;51.698;-0.292;2024-02-16T05:54:43;3.35;;;0.70;;
22476;SDS011;65006;51.698;-0.292;2024-02-16T05:59:35;1.20;;;0.80;;
22476;SDS011;65006;51.698;-0.292;2024-02-16T06:02:03;3.97;;;0.70;;
22476;SDS011;65006;51.698;-0.292;2024-02-16T06:04:29;1.05;;;0.70;;
22476;SDS011;65006;51.698;-0.292;2024-02-16T06:06:55;1.73;;;1.00;;
22476;SDS011;65006;51.698;-0.292;2024-02-16T06:09:21;1.92;;;1.00;;
22476;SDS011;65006;51.698;-0.292;2024-02-16T06:11:47;4.47;;;1.30;;
22476;SDS011;65006;51.698;-0.292;2024-02-16T06:14:13;5.78;;;0.80;;
22476;SDS011;65006;51.698;-0.292;2024-02-16T06:16:40;0.88;;;0.52;;
22476;SDS011;65006;51.698;-0.292;2024-02-16T06:19:11;4.90;;;0.98;;
22476;SDS011;65006;51.698;-0.292;2024-02-16T06:21:37;0.70;;;0.55;;
22476;SDS011;65006;51.698;-0.292;2024-02-16T06:24:03;0.85;;;0.60;;
22476;SDS011;65006;51.698;-0.292;2024-02-16T06:28:55;3.13;;;0.60;;
22476;SDS011;65006;51.698;-0.292;2024-02-16T06:31:21;4.55;;;0.60;;
22476;SDS011;65006;51.698;-0.292;2024-02-16T06:33:47;2.08;;;0.40;;
22476;SDS011;65006;51.698;-0.292;2024-02-16T06:36:13;0.57;;;0.50;;
22476;SDS011;65006;51.698;-0.292;2024-02-16T06:38:39;3.40;;;0.55;;
22476;SDS011;65006;51.698;-0.292;2024-02-16T06:41:05;5.55;;;0.43;;
22476;SDS011;65006;51.698;-0.292;2024-02-16T06:43:31;0.98;;;0.50;;
22476;SDS011;65006;51.698;-0.292;2024-02-16T06:45:57;2.50;;;0.60;;
22476;SDS011;65006;51.698;-0.292;2024-02-16T06:48:23;2.17;;;1.05;;
22476;SDS011;65006;51.698;-0.292;2024-02-16T06:50:49;0.30;;;0.30;;
22476;SDS011;65006;51.698;-0.292;2024-02-16T06:53:15;2.05;;;0.32;;
22476;SDS011;65006;51.698;-0.292;2024-02-16T06:55:42;0.95;;;0.50;;
22476;SDS011;65006;51.698;-0.292;2024-02-16T06:58:08;1.35;;;0.40;;
22476;SDS011;65006;51.698;-0.292;2024-02-16T07:00:34;1.73;;;1.30;;
22476;SDS011;65006;51.698;-0.292;2024-02-16T07:03:00;1.15;;;0.40;;
22476;SDS011;65006;51.698;-0.292;2024-02-16T07:05:29;2.35;;;0.60;;
22476;SDS011;65006;51.698;-0.292;2024-02-16T07:07:56;2.45;;;0.60;;
22476;SDS011;65006;51.698;-0.292;2024-02-16T07:10:22;1.95;;;0.50;;
22476;SDS011;65006;51.698;-0.292;2024-02-16T07:12:48;0.80;;;0.60;;
22476;SDS011;65006;51.698;-0.292;2024-02-16T07:15:14;1.92;;;0.82;;
22476;SDS011;65006;51.698;-0.292;2024-02-16T07:17:40;2.38;;;0.88;;
22476;SDS011;65006;51.698;-0.292;2024-02-16T07:20:06;3.15;;;1.00;;
22476;SDS011;65006;51.698;-0.292;2024-02-16T07:22:32;2.25;;;0.98;;
22476;SDS011;65006;51.698;-0.292;2024-02-16T07:24:59;4.60;;;1.40;;
22476;SDS011;65006;51.698;-0.292;2024-02-16T07:27:25;5.05;;;1.42;;
22476;SDS011;65006;51.698;-0.292;2024-02-16T07:29:51;5.47;;;1.50;;
22476;SDS011;65006;51.698;-0.292;2024-02-16T07:32:17;6.28;;;1.88;;
22476;SDS011;65006;51.698;-0.292;2024-02-16T07:34:47;2.13;;;1.40;;
22476;SDS011;65006;51.698;-0.292;2024-02-16T07:37:14;7.32;;;2.30;;
22476;SDS011;65006;51.698;-0.292;2024-02-16T07:39:42;9.63;;;2.47;;
22476;SDS011;65006;51.698;-0.292;2024-02-16T07:42:08;4.95;;;2.20;;
22476;SDS011;65006;51.698;-0.292;2024-02-16T07:44:34;4.35;;;2.60;;
22476;SDS011;65006;51.698;-0.292;2024-02-16T07:47:01;6.75;;;2.20;;
22476;SDS011;65006;51.698;-0.292;2024-02-16T07:49:27;6.07;;;2.78;;
22476;SDS011;65006;51.698;-0.292;2024-02-16T07:51:53;5.93;;;2.10;;
22476;SDS011;65006;51.698;-0.292;2024-02-16T07:54:19;3.55;;;2.33;;
22476;SDS011;65006;51.698;-0.292;2024-02-16T07:56:45;8.98;;;2.70;;
22476;SDS011;65006;51.698;-0.292;2024-02-16T07:59:11;3.95;;;2.42;;
22476;SDS011;65006;51.698;-0.292;2024-02-16T08:01:37;5.15;;;2.50;;
22476;SDS011;65006;51.698;-0.292;2024-02-16T08:04:03;7.43;;;2.65;;
22476;SDS011;65006;51.698;-0.292;2024-02-16T08:06:29;6.72;;;3.25;;
22476;SDS011;65006;51.698;-0.292;2024-02-16T08:08:56;10.07;;;3.35;;
22476;SDS011;65006;51.698;-0.292;2024-02-16T08:11:22;8.55;;;3.33;;
22476;SDS011;65006;51.698;-0.292;2024-02-16T08:13:48;12.30;;;2.85;;
22476;SDS011;65006;51.698;-0.292;2024-02-16T08:16:14;8.73;;;3.17;;
22476;SDS011;65006;51.698;-0.292;2024-02-16T08:18:43;10.68;;;3.10;;
22476;SDS011;65006;51.698;-0.292;2024-02-16T08:21:10;12.57;;;3.33;;
22476;SDS011;65006;51.698;-0.292;2024-02-16T08:23:36;7.40;;;3.15;;
22476;SDS011;65006;51.698;-0.292;2024-02-16T08:28:29;7.50;;;3.55;;
22476;SDS011;65006;51.698;-0.292;2024-02-16T08:30:55;10.40;;;3.15;;
22476;SDS011;65006;51.698;-0.292;2024-02-16T08:33:21;11.32;;;2.92;;
22476;SDS011;65006;51.698;-0.292;2024-02-16T08:35:47;4.45;;;3.00;;
22476;SDS011;65006;51.698;-0.292;2024-02-16T08:38:15;8.23;;;3.45;;
22476;SDS011;65006;51.698;-0.292;2024-02-16T08:40:41;8.20;;;2.40;;
22476;SDS011;65006;51.698;-0.292;2024-02-16T08:43:07;5.88;;;2.97;;
22476;SDS011;65006;51.698;-0.292;2024-02-16T08:45:33;7.65;;;2.53;;
22476;SDS011;65006;51.698;-0.292;2024-02-16T08:48:00;11.00;;;2.17;;
22476;SDS011;65006;51.698;-0.292;2024-02-16T08:50:28;12.00;;;2.88;;
22476;SDS011;65006;51.698;-0.292;2024-02-16T08:55:21;7.90;;;2.47;;
22476;SDS011;65006;51.698;-0.292;2024-02-16T08:57:47;10.90;;;3.10;;
22476;SDS011;65006;51.698;-0.292;2024-02-16T09:00:13;7.05;;;2.58;;
22476;SDS011;65006;51.698;-0.292;2024-02-16T09:02:41;10.88;;;2.92;;
22476;SDS011;65006;51.698;-0.292;2024-02-16T09:05:07;6.25;;;2.10;;
22476;SDS011;65006;51.698;-0.292;2024-02-16T09:07:34;8.20;;;2.70;;
22476;SDS011;65006;51.698;-0.292;2024-02-16T09:10:00;7.05;;;2.25;;
22476;SDS011;65006;51.698;-0.292;2024-02-16T09:12:26;5.40;;;2.00;;
22476;SDS011;65006;51.698;-0.292;2024-02-16T09:14:52;6.35;;;1.80;;
22476;SDS011;65006;51.698;-0.292;2024-02-16T09:17:18;7.55;;;1.75;;
22476;SDS011;65006;51.698;-0.292;2024-02-16T09:19:45;11.18;;;2.78;;
22476;SDS011;65006;51.698;-0.292;2024-02-16T09:22:11;8.98;;;1.70;;
22476;SDS011;65006;51.698;-0.292;2024-02-16T09:24:37;8.38;;;1.65;;
22476;SDS011;65006;51.698;-0.292;2024-02-16T09:27:05;7.07;;;2.05;;
22476;SDS011;65006;51.698;-0.292;2024-02-16T09:29:31;5.43;;;1.80;;
22476;SDS011;65006;51.698;-0.292;2024-02-16T09:31:58;5.50;;;1.83;;
22476;SDS011;65006;51.698;-0.292;2024-02-16T09:34:24;4.38;;;1.63;;
22476;SDS011;65006;51.698;-0.292;2024-02-16T09:36:50;6.53;;;1.45;;
22476;SDS011;65006;51.698;-0.292;2024-02-16T09:39:16;3.78;;;1.38;;
22476;SDS011;65006;51.698;-0.292;2024-02-16T09:41:42;6.32;;;2.08;;
22476;SDS011;65006;51.698;-0.292;2024-02-16T09:44:09;10.65;;;1.90;;
22476;SDS011;65006;51.698;-0.292;2024-02-16T09:46:35;8.68;;;1.80;;
22476;SDS011;65006;51.698;-0.292;2024-02-16T09:49:02;7.60;;;2.90;;
22476;SDS011;65006;51.698;-0.292;2024-02-16T09:51:29;5.60;;;2.35;;
22476;SDS011;65006;51.698;-0.292;2024-02-16T09:53:55;5.57;;;1.50;;
22476;SDS011;65006;51.698;-0.292;2024-02-16T09:56:21;4.15;;;1.92;;
22476;SDS011;65006;51.698;-0.292;2024-02-16T09:58:49;7.50;;;2.22;;
22476;SDS011;65006;51.698;-0.292;2024-02-16T10:01:20;9.38;;;2.35;;
22476;SDS011;65006;51.698;-0.292;2024-02-16T10:03:46;7.97;;;2.28;;
22476;SDS011;65006;51.698;-0.292;2024-02-16T10:06:12;6.57;;;1.85;;
22476;SDS011;65006;51.698;-0.292;2024-02-16T10:08:53;7.85;;;2.17;;
22476;SDS011;65006;51.698;-0.292;2024-02-16T10:11:25;7.57;;;1.83;;
22476;SDS011;65006;51.698;-0.292;2024-02-16T10:13:58;5.35;;;2.08;;
22476;SDS011;65006;51.698;-0.292;2024-02-16T10:16:25;8.13;;;1.38;;
22476;SDS011;65006;51.698;-0.292;2024-02-16T10:18:54;10.73;;;1.70;;
22476;SDS011;65006;51.698;-0.292;2024-02-16T10:21:26;5.20;;;1.58;;
22476;SDS011;65006;51.698;-0.292;2024-02-16T10:23:59;6.03;;;1.42;;
22476;SDS011;65006;51.698;-0.292;2024-02-16T10:26:27;7.20;;;1.70;;
22476;SDS011;65006;51.698;-0.292;2024-02-16T10:28:55;6.50;;;1.70;;
22476;SDS011;65006;51.698;-0.292;2024-02-16T10:31:22;9.60;;;1.63;;
22476;SDS011;65006;51.698;-0.292;2024-02-16T10:34:02;12.70;;;2.63;;
22476;SDS011;65006;51.698;-0.292;2024-02-16T10:36:30;8.40;;;1.50;;
22476;SDS011;65006;51.698;-0.292;2024-02-16T10:38:57;5.45;;;1.60;;
22476;SDS011;65006;51.698;-0.292;2024-02-16T10:41:26;8.25;;;1.75;;
22476;SDS011;65006;51.698;-0.292;2024-02-16T10:43:55;2.55;;;1.60;;
22476;SDS011;65006;51.698;-0.292;2024-02-16T10:46:24;8.15;;;1.65;;
22476;SDS011;65006;51.698;-0.292;2024-02-16T10:48:51;4.13;;;1.30;;
22476;SDS011;65006;51.698;-0.292;2024-02-16T10:51:20;6.85;;;1.10;;
22476;SDS011;65006;51.698;-0.292;2024-02-16T10:53:46;3.22;;;1.00;;
22476;SDS011;65006;51.698;-0.292;2024-02-16T10:58:39;3.97;;;1.10;;
22476;SDS011;65006;51.698;-0.292;2024-02-16T11:01:09;4.43;;;1.00;;
22476;SDS011;65006;51.698;-0.292;2024-02-16T11:03:38;3.58;;;0.88;;
22476;SDS011;65006;51.698;-0.292;2024-02-16T11:06:14;4.35;;;1.10;;
22476;SDS011;65006;51.698;-0.292;2024-02-16T11:08:41;2.85;;;0.70;;
22476;SDS011;65006;51.698;-0.292;2024-02-16T11:11:09;2.35;;;0.90;;
22476;SDS011;65006;51.698;-0.292;2024-02-16T11:13:37;2.65;;;0.63;;
22476;SDS011;65006;51.698;-0.292;2024-02-16T11:16:08;5.97;;;0.93;;
22476;SDS011;65006;51.698;-0.292;2024-02-16T11:18:38;2.95;;;0.80;;
22476;SDS011;65006;51.698;-0.292;2024-02-16T11:21:05;2.53;;;0.57;;
22476;SDS011;65006;51.698;-0.292;2024-02-16T11:23:34;3.70;;;0.90;;
22476;SDS011;65006;51.698;-0.292;2024-02-16T11:26:02;2.10;;;0.55;;
22476;SDS011;65006;51.698;-0.292;2024-02-16T11:28:30;3.63;;;1.33;;
22476;SDS011;65006;51.698;-0.292;2024-02-16T11:30:57;3.53;;;0.80;;
22476;SDS011;65006;51.698;-0.292;2024-02-16T11:33:23;4.65;;;0.70;;
22476;SDS011;65006;51.698;-0.292;2024-02-16T11:35:58;5.25;;;0.40;;
22476;SDS011;65006;51.698;-0.292;2024-02-16T11:38:24;1.67;;;0.50;;
22476;SDS011;65006;51.698;-0.292;2024-02-16T11:40:54;3.92;;;1.20;;
22476;SDS011;65006;51.698;-0.292;2024-02-16T11:43:21;2.22;;;0.55;;
22476;SDS011;65006;51.698;-0.292;2024-02-16T11:45:47;3.38;;;0.40;;
22476;SDS011;65006;51.698;-0.292;2024-02-16T11:48:18;2.30;;;0.40;;
22476;SDS011;65006;51.698;-0.292;2024-02-16T11:50:45;3.13;;;0.75;;
22476;SDS011;65006;51.698;-0.292;2024-02-16T11:53:14;2.78;;;0.85;;
22476;SDS011;65006;51.698;-0.292;2024-02-16T11:55:45;2.15;;;0.60;;
22476;SDS011;65006;51.698;-0.292;2024-02-16T11:58:12;2.28;;;0.98;;
22476;SDS011;65006;51.698;-0.292;2024-02-16T12:00:39;6.03;;;0.73;;
22476;SDS011;65006;51.698;-0.292;2024-02-16T12:03:06;2.00;;;0.50;;
22476;SDS011;65006;51.698;-0.292;2024-02-16T12:05:32;1.98;;;0.60;;
22476;SDS011;65006;51.698;-0.292;2024-02-16T12:07:58;4.78;;;0.85;;
22476;SDS011;65006;51.698;-0.292;2024-02-16T12:10:25;1.88;;;0.43;;
22476;SDS011;65006;51.698;-0.292;2024-02-16T12:12:52;2.78;;;0.65;;
22476;SDS011;65006;51.698;-0.292;2024-02-16T12:15:18;5.35;;;1.95;;
22476;SDS011;65006;51.698;-0.292;2024-02-16T12:17:45;4.55;;;0.60;;
22476;SDS011;65006;51.698;-0.292;2024-02-16T12:20:14;3.08;;;0.93;;
22476;SDS011;65006;51.698;-0.292;2024-02-16T12:22:40;1.52;;;0.70;;
22476;SDS011;65006;51.698;-0.292;2024-02-16T12:25:06;5.65;;;0.63;;
22476;SDS011;65006;51.698;-0.292;2024-02-16T12:27:33;5.35;;;0.70;;
22476;SDS011;65006;51.698;-0.292;2024-02-16T12:29:59;1.33;;;0.75;;
22476;SDS011;65006;51.698;-0.292;2024-02-16T12:32:25;2.25;;;0.60;;
22476;SDS011;65006;51.698;-0.292;2024-02-16T12:34:52;2.53;;;0.65;;
22476;SDS011;65006;51.698;-0.292;2024-02-16T12:37:18;1.30;;;0.60;;
22476;SDS011;65006;51.698;-0.292;2024-02-16T12:39:44;1.95;;;0.60;;
22476;SDS011;65006;51.698;-0.292;2024-02-16T12:42:11;3.33;;;0.93;;
22476;SDS011;65006;51.698;-0.292;2024-02-16T12:44:39;1.13;;;0.60;;
22476;SDS011;65006;51.698;-0.292;2024-02-16T12:47:05;1.00;;;0.50;;
22476;SDS011;65006;51.698;-0.292;2024-02-16T12:49:31;1.77;;;0.60;;
22476;SDS011;65006;51.698;-0.292;2024-02-16T12:51:57;0.95;;;0.60;;
22476;SDS011;65006;51.698;-0.292;2024-02-16T12:54:23;2.20;;;0.73;;
22476;SDS011;65006;51.698;-0.292;2024-02-16T12:56:50;0.70;;;0.47;;
22476;SDS011;65006;51.698;-0.292;2024-02-16T12:59:16;4.07;;;0.98;;
22476;SDS011;65006;51.698;-0.292;2024-02-16T13:01:42;2.90;;;0.70;;
22476;SDS011;65006;51.698;-0.292;2024-02-16T13:04:09;2.47;;;0.70;;
22476;SDS011;65006;51.698;-0.292;2024-02-16T13:06:35;1.25;;;0.50;;
22476;SDS011;65006;51.698;-0.292;2024-02-16T13:11:27;2.10;;;0.32;;
22476;SDS011;65006;51.698;-0.292;2024-02-16T13:13:55;1.08;;;0.40;;
22476;SDS011;65006;51.698;-0.292;2024-02-16T13:16:21;2.03;;;0.50;;
22476;SDS011;65006;51.698;-0.292;2024-02-16T13:18:47;1.33;;;0.32;;
22476;SDS011;65006;51.698;-0.292;2024-02-16T13:21:13;0.43;;;0.30;;
22476;SDS011;65006;51.698;-0.292;2024-02-16T13:23:40;0.95;;;0.32;;
22476;SDS011;65006;51.698;-0.292;2024-02-16T13:26:07;1.38;;;0.30;;
22476;SDS011;65006;51.698;-0.292;2024-02-16T13:28:33;3.65;;;0.60;;
22476;SDS011;65006;51.698;-0.292;2024-02-16T13:31:00;1.65;;;0.60;;
22476;SDS011;65006;51.698;-0.292;2024-02-16T13:33:26;4.43;;;0.45;;
22476;SDS011;65006;51.698;-0.292;2024-02-16T13:35:52;1.42;;;0.40;;
22476;SDS011;65006;51.698;-0.292;2024-02-16T13:38:19;2.42;;;0.43;;
22476;SDS011;65006;51.698;-0.292;2024-02-16T13:40:45;2.05;;;0.30;;
22476;SDS011;65006;51.698;-0.292;2024-02-16T13:43:11;2.88;;;0.40;;
22476;SDS011;65006;51.698;-0.292;2024-02-16T13:45:50;2.40;;;0.40;;
22476;SDS011;65006;51.698;-0.292;2024-02-16T13:48:17;2.78;;;0.43;;
22476;SDS011;65006;51.698;-0.292;2024-02-16T13:53:10;4.00;;;0.95;;
22476;SDS011;65006;51.698;-0.292;2024-02-16T13:55:36;5.07;;;0.70;;
22476;SDS011;65006;51.698;-0.292;2024-02-16T13:58:02;2.17;;;0.50;;
22476;SDS011;65006;51.698;-0.292;2024-02-16T14:00:28;0.73;;;0.43;;
22476;SDS011;65006;51.698;-0.292;2024-02-16T14:02:54;2.83;;;0.52;;
22476;SDS011;65006;51.698;-0.292;2024-02-16T14:05:20;3.75;;;0.50;;
22476;SDS011;65006;51.698;-0.292;2024-02-16T14:07:47;3.30;;;0.50;;
22476;SDS011;65006;51.698;-0.292;2024-02-16T14:10:13;3.83;;;0.73;;
22476;SDS011;65006;51.698;-0.292;2024-02-16T14:12:39;3.90;;;0.88;;
22476;SDS011;65006;51.698;-0.292;2024-02-16T14:15:06;1.65;;;0.63;;
22476;SDS011;65006;51.698;-0.292;2024-02-16T14:17:32;5.70;;;0.73;;
22476;SDS011;65006;51.698;-0.292;2024-02-16T14:19:58;1.23;;;0.60;;
22476;SDS011;65006;51.698;-0.292;2024-02-16T14:22:24;5.70;;;1.05;;
22476;SDS011;65006;51.698;-0.292;2024-02-16T14:24:50;3.00;;;0.57;;
22476;SDS011;65006;51.698;-0.292;2024-02-16T14:27:16;2.53;;;0.63;;
22476;SDS011;65006;51.698;-0.292;2024-02-16T14:29:42;3.45;;;0.55;;
22476;SDS011;65006;51.698;-0.292;2024-02-16T14:32:08;3.50;;;0.77;;
22476;SDS011;65006;51.698;-0.292;2024-02-16T14:34:34;5.40;;;0.77;;
22476;SDS011;65006;51.698;-0.292;2024-02-16T14:37:00;4.93;;;0.70;;
22476;SDS011;65006;51.698;-0.292;2024-02-16T14:39:26;2.00;;;0.50;;
22476;SDS011;65006;51.698;-0.292;2024-02-16T14:41:52;7.80;;;1.48;;
22476;SDS011;65006;51.698;-0.292;2024-02-16T14:44:18;5.78;;;2.30;;
22476;SDS011;65006;51.698;-0.292;2024-02-16T14:46:45;5.05;;;0.88;;
22476;SDS011;65006;51.698;-0.292;2024-02-16T14:49:11;1.92;;;0.70;;
22476;SDS011;65006;51.698;-0.292;2024-02-16T14:51:44;4.78;;;0.50;;
22476;SDS011;65006;51.698;-0.292;2024-02-16T14:54:16;3.60;;;0.68;;
22476;SDS011;65006;51.698;-0.292;2024-02-16T14:56:42;2.42;;;0.55;;
22476;SDS011;65006;51.698;-0.292;2024-02-16T14:59:09;1.23;;;0.40;;